createdAt,value
2023-01-15T00:00:21.625Z,98681.13
2023-01-15T00:01:28.703Z,98691.81
2023-01-15T00:02:31.250Z,98683.97
2023-01-15T00:03:32.929Z,98675.28
2023-01-15T00:04:35.063Z,98676.25
2023-01-15T00:05:36.980Z,98672.94
2023-01-15T00:06:41.299Z,98676.16
2023-01-15T00:07:42.848Z,98682.19
2023-01-15T00:08:45.168Z,98670.31
2023-01-15T00:09:46.684Z,98669.38
2023-01-15T00:10:48.344Z,98670.56
2023-01-15T00:11:50.024Z,98673.88
2023-01-15T00:12:51.608Z,98670.44
2023-01-15T00:13:53.162Z,98672.94
2023-01-15T00:14:54.710Z,98664.50
2023-01-15T00:16:08.512Z,98665.44
2023-01-15T00:17:10.051Z,98670.78
2023-01-15T00:18:11.556Z,98674.22
2023-01-15T00:19:13.101Z,98670.66
2023-01-15T00:20:14.633Z,98676.84
2023-01-15T00:21:16.161Z,98666.41
2023-01-15T00:22:17.689Z,98669.00
2023-01-15T00:23:19.200Z,98662.22
2023-01-15T00:24:20.796Z,98676.13
2023-01-15T00:25:22.446Z,98659.97
2023-01-15T00:26:28.598Z,98657.34
2023-01-15T00:27:30.123Z,98650.25
2023-01-15T00:28:31.629Z,98650.38
2023-01-15T00:29:33.187Z,98650.47
2023-01-15T00:30:34.704Z,98644.31
2023-01-15T00:31:36.412Z,98642.66
2023-01-15T00:32:41.043Z,98645.38
2023-01-15T00:33:42.647Z,98633.03
2023-01-15T00:34:44.205Z,98641.59
2023-01-15T00:35:45.737Z,98638.13
2023-01-15T00:36:47.262Z,98645.25
2023-01-15T00:37:49.760Z,98646.19
2023-01-15T00:38:52.689Z,98636.59
2023-01-15T00:39:54.473Z,98634.00
2023-01-15T00:40:56.031Z,98637.41
2023-01-15T00:41:57.545Z,98637.88
2023-01-15T00:42:59.088Z,98630.84
2023-01-15T00:44:00.621Z,98628.84
2023-01-15T00:45:05.907Z,98629.59
2023-01-15T00:46:07.712Z,98625.22
2023-01-15T00:47:09.667Z,98628.53
2023-01-15T00:48:11.236Z,98619.84
2023-01-15T00:49:12.898Z,98617.38
2023-01-15T00:50:15.335Z,98622.47
2023-01-15T00:51:16.893Z,98624.97
2023-01-15T00:52:18.431Z,98609.28
2023-01-15T00:53:19.988Z,98619.75
2023-01-15T00:54:21.814Z,98606.31
2023-01-15T00:55:23.323Z,98605.38
2023-01-15T00:56:24.926Z,98599.19
2023-01-15T00:57:27.132Z,98597.19
2023-01-15T00:58:29.086Z,98589.47
2023-01-15T00:59:30.610Z,98590.75
2023-01-15T01:00:32.232Z,98598.38
2023-01-15T01:01:34.434Z,98584.47
2023-01-15T01:02:36.072Z,98591.09
2023-01-15T01:03:37.643Z,98592.53
2023-01-15T01:04:39.221Z,98595.16
2023-01-15T01:05:40.819Z,98587.06
2023-01-15T01:06:42.773Z,98590.13
2023-01-15T01:07:46.129Z,98586.56
2023-01-15T01:08:48.215Z,98580.63
2023-01-15T01:09:49.796Z,98581.13
2023-01-15T01:11:01.582Z,98568.75
2023-01-15T01:12:03.031Z,98577.78
2023-01-15T01:13:04.610Z,98571.47
2023-01-15T01:14:06.181Z,98576.59
2023-01-15T01:15:08.635Z,98577.56
2023-01-15T01:16:33.444Z,98569.81
2023-01-15T01:17:39.223Z,98561.97
2023-01-15T01:18:40.744Z,98559.47
2023-01-15T01:19:42.309Z,98552.22
2023-01-15T01:20:43.856Z,98546.91
2023-01-15T01:21:46.900Z,98553.06
2023-01-15T01:22:49.240Z,98543.59
2023-01-15T01:23:51.047Z,98548.09
2023-01-15T01:24:52.570Z,98543.00
2023-01-15T01:25:54.110Z,98536.56
2023-01-15T01:26:57.763Z,98534.63
2023-01-15T01:27:59.324Z,98527.06
2023-01-15T01:29:01.927Z,98525.03
2023-01-15T01:30:04.091Z,98530.25
2023-01-15T01:31:09.207Z,98525.03
2023-01-15T01:32:10.783Z,98525.16
2023-01-15T01:33:12.316Z,98526.00
2023-01-15T01:34:15.175Z,98525.03
2023-01-15T01:35:16.754Z,98522.69
2023-01-15T01:36:19.410Z,98516.50
2023-01-15T01:37:20.935Z,98506.03
2023-01-15T01:38:22.499Z,98516.94
2023-01-15T01:39:25.663Z,98507.31
2023-01-15T01:40:28.621Z,98504.81
2023-01-15T01:41:30.470Z,98506.38
2023-01-15T01:42:32.015Z,98501.16
2023-01-15T01:43:52.794Z,98505.66
2023-01-15T01:45:00.853Z,98494.53
2023-01-15T01:46:02.437Z,98489.84
2023-01-15T01:47:09.854Z,98480.09
2023-01-15T01:48:12.455Z,98473.69
2023-01-15T01:49:14.445Z,98475.59
2023-01-15T01:50:16.793Z,98480.94
2023-01-15T01:51:22.100Z,98468.72
2023-01-15T01:52:31.380Z,98477.47
2023-01-15T01:53:32.956Z,98467.97
2023-01-15T01:54:37.940Z,98458.25
2023-01-15T01:55:39.539Z,98463.59
2023-01-15T01:56:41.401Z,98460.03
2023-01-15T01:57:44.845Z,98459.06
2023-01-15T01:58:50.622Z,98458.25
2023-01-15T01:59:52.810Z,98458.47
2023-01-15T02:00:54.480Z,98455.06
2023-01-15T02:01:56.402Z,98442.56
2023-01-15T02:02:58.186Z,98448.63
2023-01-15T02:04:02.499Z,98456.84
2023-01-15T02:05:05.594Z,98449.69
2023-01-15T02:06:09.821Z,98450.66
2023-01-15T02:07:11.397Z,98443.06
2023-01-15T02:08:13.289Z,98447.06
2023-01-15T02:09:14.831Z,98448.63
2023-01-15T02:10:17.030Z,98444.34
2023-01-15T02:11:23.957Z,98440.19
2023-01-15T02:12:33.988Z,98437.34
2023-01-15T02:13:56.028Z,98437.72
2023-01-15T02:15:13.748Z,98428.78
2023-01-15T02:16:22.706Z,98441.84
2023-01-15T02:17:44.053Z,98450.66
2023-01-15T02:18:55.443Z,98448.72
2023-01-15T02:20:21.188Z,98449.00
2023-01-15T02:21:37.074Z,98449.84
2023-01-15T02:23:29.447Z,98443.91
2023-01-15T02:24:55.626Z,98440.44
2023-01-15T02:26:04.852Z,98456.41
2023-01-15T02:27:15.097Z,98449.25
2023-01-15T02:28:24.664Z,98461.09
2023-01-15T02:29:32.769Z,98460.13
2023-01-15T02:30:42.399Z,98463.84
2023-01-15T02:31:49.967Z,98460.13
2023-01-15T02:33:12.720Z,98466.09
2023-01-15T02:34:23.621Z,98461.81
2023-01-15T02:35:36.512Z,98465.00
2023-01-15T02:36:42.026Z,98472.03
2023-01-15T02:37:54.081Z,98471.75
2023-01-15T02:39:01.919Z,98463.06
2023-01-15T02:40:05.935Z,98474.06
2023-01-15T02:41:10.881Z,98451.22
2023-01-15T02:42:16.373Z,98461.56
2023-01-15T02:43:23.759Z,98463.59
2023-01-15T02:44:29.439Z,98473.78
2023-01-15T02:45:35.015Z,98474.50
2023-01-15T02:46:45.118Z,98468.72
2023-01-15T02:47:47.612Z,98473.78
2023-01-15T02:48:54.314Z,98476.41
2023-01-15T02:50:00.185Z,98479.88
2023-01-15T02:51:10.787Z,98476.78
2023-01-15T02:52:39.627Z,98468.81
2023-01-15T02:53:45.026Z,98470.91
2023-01-15T02:54:51.783Z,98473.41
2023-01-15T02:55:58.287Z,98457.84
2023-01-15T02:57:04.926Z,98465.00
2023-01-15T02:58:11.642Z,98451.81
2023-01-15T02:59:20.781Z,98450.00
2023-01-15T03:00:25.868Z,98455.97
2023-01-15T03:01:35.965Z,98442.91
2023-01-15T03:02:46.099Z,98433.41
2023-01-15T03:04:08.007Z,98443.84
2023-01-15T03:05:18.346Z,98450.59
2023-01-15T03:06:36.588Z,98439.06
2023-01-15T03:07:46.459Z,98439.91
2023-01-15T03:08:48.667Z,98443.72
2023-01-15T03:09:52.812Z,98439.19
2023-01-15T03:11:07.844Z,98438.94
2023-01-15T03:12:24.460Z,98436.72
2023-01-15T03:14:16.676Z,98434.47
2023-01-15T03:15:20.634Z,98431.88
2023-01-15T03:16:35.071Z,98425.78
2023-01-15T03:17:45.608Z,98433.78
2023-01-15T03:19:01.254Z,98441.16
2023-01-15T03:20:08.377Z,98430.44
2023-01-15T03:21:13.646Z,98431.28
2023-01-15T03:22:25.927Z,98432.25
2023-01-15T03:23:30.411Z,98439.38
2023-01-15T03:24:37.317Z,98418.59
2023-01-15T03:25:47.012Z,98430.69
2023-01-15T03:26:48.637Z,98438.28
2023-01-15T03:27:54.410Z,98432.13
2023-01-15T03:28:56.083Z,98431.53
2023-01-15T03:30:02.924Z,98434.75
2023-01-15T03:31:04.766Z,98433.53
2023-01-15T03:32:06.537Z,98429.94
2023-01-15T03:33:08.838Z,98438.63
2023-01-15T03:34:11.204Z,98434.31
2023-01-15T03:35:46.373Z,98436.81
2023-01-15T03:36:55.977Z,98438.63
2023-01-15T03:37:58.871Z,98445.38
2023-01-15T03:39:00.590Z,98438.38
2023-01-15T03:40:17.154Z,98442.91
2023-01-15T03:41:38.255Z,98440.41
2023-01-15T03:42:54.150Z,98442.75
2023-01-15T03:44:11.793Z,98443.00
2023-01-15T03:45:23.263Z,98434.31
2023-01-15T03:46:42.848Z,98438.06
2023-01-15T03:48:09.572Z,98429.38
2023-01-15T03:49:32.679Z,98430.31
2023-01-15T03:51:00.621Z,98424.97
2023-01-15T03:52:19.755Z,98436.75
2023-01-15T03:53:42.024Z,98424.66
2023-01-15T03:54:57.412Z,98430.59
2023-01-15T03:56:08.608Z,98435.22
2023-01-15T03:57:30.047Z,98423.00
2023-01-15T03:59:13.320Z,98419.53
2023-01-15T04:00:55.869Z,98422.84
2023-01-15T04:01:59.028Z,98416.25
2023-01-15T09:23:56.969Z,98216.44
2023-01-15T09:25:36.137Z,98210.25
2023-01-15T09:26:39.507Z,98205.16
2023-01-15T09:27:41.067Z,98196.81
2023-01-15T09:28:42.609Z,98201.22
2023-01-15T09:29:44.130Z,98190.78
2023-01-15T09:30:45.915Z,98203.25
2023-01-15T09:31:47.525Z,98203.00
2023-01-15T09:32:49.365Z,98200.28
2023-01-15T09:33:51.024Z,98201.13
2023-01-15T09:34:52.601Z,98195.16
2023-01-15T09:35:54.197Z,98195.06
2023-01-15T09:36:55.881Z,98200.53
2023-01-15T09:37:57.385Z,98193.53
2023-01-15T09:39:00.107Z,98185.69
2023-01-15T09:40:01.778Z,98195.75
2023-01-15T09:41:11.202Z,98190.41
2023-01-15T09:42:31.515Z,98193.41
2023-01-15T09:43:50.759Z,98188.28
2023-01-15T09:45:13.454Z,98197.09
2023-01-15T09:46:17.070Z,98184.72
2023-01-15T09:47:30.223Z,98176.78
2023-01-15T09:48:46.689Z,98186.66
2023-01-15T09:49:57.543Z,98177.97
2023-01-15T09:51:12.089Z,98194.22
2023-01-15T09:52:38.666Z,98191.59
2023-01-15T09:54:00.749Z,98190.41
2023-01-15T09:55:10.057Z,98194.22
2023-01-15T09:56:22.164Z,98194.34
2023-01-15T09:57:25.362Z,98198.63
2023-01-15T09:58:39.764Z,98201.34
2023-01-15T09:59:45.622Z,98213.75
2023-01-15T10:00:50.315Z,98213.63
2023-01-15T10:01:53.664Z,98216.81
2023-01-15T10:03:10.194Z,98225.09
2023-01-15T10:04:30.127Z,98223.31
2023-01-15T10:05:50.614Z,98224.50
2023-01-15T10:07:00.287Z,98213.81
2023-01-15T10:08:11.242Z,98210.00
2023-01-15T10:09:25.759Z,98197.63
2023-01-15T10:10:36.997Z,98209.72
2023-01-15T10:11:43.162Z,98195.84
2023-01-15T10:12:47.264Z,98191.31
2023-01-15T10:14:00.217Z,98195.16
2023-01-15T10:15:17.412Z,98191.44
2023-01-15T10:16:25.481Z,98198.88
2023-01-15T10:17:57.808Z,98192.97
2023-01-15T10:19:02.059Z,98191.31
2023-01-15T10:20:03.822Z,98190.34
2023-01-15T10:21:08.058Z,98187.63
2023-01-15T10:22:28.476Z,98188.00
2023-01-15T10:23:38.949Z,98177.56
2023-01-15T10:24:48.540Z,98184.28
2023-01-15T10:25:54.942Z,98187.88
2023-01-15T10:27:00.243Z,98190.94
2023-01-15T10:28:13.474Z,98185.44
2023-01-15T10:29:23.604Z,98187.47
2023-01-15T10:30:42.877Z,98178.13
2023-01-15T10:31:57.454Z,98180.59
2023-01-15T10:33:13.059Z,98176.91
2023-01-15T10:34:41.756Z,98177.19
2023-01-15T10:36:07.831Z,98182.41
2023-01-15T10:37:21.364Z,98177.41
2023-01-15T10:38:44.481Z,98179.22
2023-01-15T10:40:09.109Z,98172.06
2023-01-15T10:41:48.008Z,98166.84
2023-01-15T10:43:14.953Z,98180.47
2023-01-15T10:44:27.860Z,98174.69
2023-01-15T10:45:44.341Z,98167.38
2023-01-15T10:46:55.107Z,98174.78
2023-01-15T10:48:18.373Z,98173.00
2023-01-15T10:49:19.927Z,98171.66
2023-01-15T10:50:24.311Z,98170.69
2023-01-15T10:52:06.764Z,98175.66
2023-01-15T10:53:18.433Z,98167.13
2023-01-15T10:54:47.547Z,98166.00
2023-01-15T10:55:52.987Z,98167.81
2023-01-15T10:57:03.426Z,98160.53
2023-01-15T10:58:45.349Z,98156.97
2023-01-15T10:59:50.121Z,98153.22
2023-01-15T11:00:58.643Z,98163.66
2023-01-15T11:02:03.695Z,98160.78
2023-01-15T11:03:12.284Z,98160.25
2023-01-15T11:04:13.933Z,98165.31
2023-01-15T11:05:20.505Z,98163.94
2023-01-15T11:06:23.828Z,98160.25
2023-01-15T11:08:09.151Z,98164.63
2023-01-15T11:09:19.558Z,98162.59
2023-01-15T11:10:22.632Z,98156.94
2023-01-15T11:11:34.693Z,98157.19
2023-01-15T11:12:36.238Z,98156.09
2023-01-15T11:13:37.781Z,98159.41
2023-01-15T11:14:42.317Z,98153.66
2023-01-15T11:15:50.265Z,98157.25
2023-01-15T11:16:52.139Z,98150.47
2023-01-15T11:17:53.704Z,98158.31
2023-01-15T11:18:55.261Z,98154.75
2023-01-15T11:19:56.820Z,98158.88
2023-01-15T11:20:58.691Z,98149.41
2023-01-15T11:22:00.285Z,98145.56
2023-01-15T11:23:11.383Z,98150.78
2023-01-15T11:24:17.737Z,98145.56
2023-01-15T11:25:30.818Z,98134.72
2023-01-15T11:26:33.342Z,98138.41
2023-01-15T11:27:36.379Z,98145.16
2023-01-15T11:28:41.112Z,98142.16
2023-01-15T11:29:44.936Z,98137.63
2023-01-15T11:30:54.284Z,98135.41
2023-01-15T11:31:55.794Z,98131.16
2023-01-15T11:33:02.885Z,98136.94
2023-01-15T11:34:07.013Z,98124.97
2023-01-15T11:35:08.473Z,98130.34
2023-01-15T11:36:26.093Z,98128.25
2023-01-15T11:37:28.484Z,98128.81
2023-01-15T11:38:51.065Z,98130.88
2023-01-15T11:39:54.485Z,98123.03
2023-01-15T11:41:01.620Z,98124.41
2023-01-15T11:42:05.545Z,98116.44
2023-01-15T11:43:24.284Z,98118.94
2023-01-15T11:44:25.850Z,98117.41
2023-01-15T11:45:27.370Z,98104.34
2023-01-15T11:46:31.277Z,98111.91
2023-01-15T11:47:32.830Z,98105.28
2023-01-15T11:48:45.181Z,98104.34
2023-01-15T11:49:53.889Z,98106.81
2023-01-15T11:51:06.762Z,98106.09
2023-01-15T11:52:22.431Z,98101.03
2023-01-15T11:53:28.101Z,98099.38
2023-01-15T11:54:32.233Z,98101.03
2023-01-15T11:55:33.869Z,98092.75
2023-01-15T11:56:36.182Z,98102.00
2023-01-15T11:57:38.883Z,98097.75
2023-01-15T11:58:46.086Z,98102.00
2023-01-15T11:59:50.256Z,98098.81
2023-01-15T12:00:53.564Z,98104.16
2023-01-15T12:02:02.812Z,98105.28
2023-01-15T12:03:15.138Z,98108.59
2023-01-15T12:04:48.820Z,98103.47
2023-01-15T12:06:03.387Z,98098.81
2023-01-15T12:07:06.909Z,98101.28
2023-01-15T12:08:37.304Z,98098.41
2023-01-15T12:10:02.720Z,98098.66
2023-01-15T12:11:26.989Z,98084.63
2023-01-15T12:12:44.129Z,98084.09
2023-01-15T12:14:03.723Z,98083.81
2023-01-15T12:15:05.211Z,98088.22
2023-01-15T12:16:19.142Z,98083.66
2023-01-15T12:17:40.317Z,98075.97
2023-01-15T12:18:58.997Z,98068.53
2023-01-15T12:20:12.075Z,98074.84
2023-01-15T12:21:13.615Z,98076.66
2023-01-15T12:22:17.909Z,98072.13
2023-01-15T12:23:25.271Z,98064.97
2023-01-15T12:24:51.566Z,98060.53
2023-01-15T12:25:58.959Z,98070.13
2023-01-15T12:27:14.486Z,98060.81
2023-01-15T12:28:28.191Z,98056.09
2023-01-15T12:29:37.124Z,98048.81
2023-01-15T12:30:46.494Z,98052.13
2023-01-15T12:31:54.972Z,98046.59
2023-01-15T12:33:07.717Z,98051.72
2023-01-15T12:34:22.868Z,98046.84
2023-01-15T12:35:40.016Z,98049.34
2023-01-15T12:36:50.665Z,98042.44
2023-01-15T12:37:57.645Z,98040.94
2023-01-15T12:39:18.942Z,98038.19
2023-01-15T12:40:30.169Z,98032.97
2023-01-15T12:41:33.185Z,98026.78
2023-01-15T12:42:36.985Z,98031.06
2023-01-15T12:43:38.518Z,98033.13
2023-01-15T12:44:55.641Z,98041.75
2023-01-15T12:45:59.226Z,98014.97
2023-01-15T12:47:03.196Z,98025.28
2023-01-15T12:48:19.901Z,98030.50
2023-01-15T12:50:02.948Z,98030.75
2023-01-15T12:51:06.321Z,98033.22
2023-01-15T12:52:13.915Z,98031.72
2023-01-15T12:53:44.985Z,98042.72
2023-01-15T12:55:14.446Z,98037.09
2023-01-15T12:56:36.396Z,98051.09
2023-01-15T12:57:40.428Z,98057.81
2023-01-15T12:58:50.881Z,98052.47
2023-01-15T13:00:05.116Z,98057.69
2023-01-15T13:01:40.190Z,98071.00
2023-01-15T13:03:08.108Z,98067.16
2023-01-15T13:04:28.074Z,98069.78
2023-01-15T13:05:36.636Z,98066.09
2023-01-15T13:06:44.684Z,98064.44
2023-01-15T13:07:56.034Z,98061.69
2023-01-15T13:09:25.618Z,98061.44
2023-01-15T13:10:30.011Z,98061.44
2023-01-15T13:11:32.582Z,98063.66
2023-01-15T13:12:34.622Z,98062.84
2023-01-15T13:13:40.214Z,98063.94
2023-01-15T13:14:46.234Z,98049.34
2023-01-15T13:15:57.778Z,98057.75
2023-01-15T13:17:18.847Z,98046.22
2023-01-15T13:18:51.400Z,98054.91
2023-01-15T13:20:17.405Z,98057.91
2023-01-15T13:21:19.210Z,98057.22
2023-01-15T13:22:26.366Z,98056.28
2023-01-15T13:24:05.740Z,98060.81
2023-01-15T13:25:35.132Z,98070.00
2023-01-15T13:27:09.644Z,98057.75
2023-01-15T13:28:20.373Z,98058.31
2023-01-15T13:29:40.246Z,98045.53
2023-01-15T13:30:59.533Z,98048.72
2023-01-15T13:32:01.102Z,98049.66
2023-01-15T13:33:24.283Z,98051.31
2023-01-15T13:34:49.627Z,98040.72
2023-01-15T13:36:01.405Z,98051.84
2023-01-15T13:37:18.084Z,98048.31
2023-01-15T13:38:27.822Z,98044.88
2023-01-15T13:39:38.807Z,98048.56
2023-01-15T13:40:43.231Z,98040.72
2023-01-15T13:41:50.045Z,98041.84
2023-01-15T13:42:53.755Z,98033.84
2023-01-15T13:44:01.050Z,98032.88
2023-01-15T13:45:21.477Z,98040.31
2023-01-15T13:46:23.124Z,98029.47
2023-01-15T13:47:28.727Z,98034.38
2023-01-15T13:48:37.241Z,98028.78
2023-01-15T13:49:48.702Z,98025.22
2023-01-15T13:50:58.613Z,98029.03
2023-01-15T13:52:00.367Z,98025.22
2023-01-15T13:53:14.621Z,98022.72
2023-01-15T13:54:23.850Z,98018.75
2023-01-15T13:55:31.831Z,98016.25
2023-01-15T13:56:34.148Z,98018.88
2023-01-15T13:57:38.093Z,98026.84
2023-01-15T13:58:52.123Z,98034.69
2023-01-15T13:59:53.716Z,98023.81
2023-01-15T14:01:06.367Z,98023.69
2023-01-15T14:02:26.864Z,98028.09
2023-01-15T14:03:31.320Z,98029.31
2023-01-15T14:04:37.359Z,98027.53
2023-01-15T14:05:39.696Z,98025.22
2023-01-15T14:06:46.183Z,98028.50
2023-01-15T14:07:47.732Z,98031.63
2023-01-15T14:08:49.279Z,98032.31
2023-01-15T14:09:50.828Z,98040.16
2023-01-15T14:10:52.453Z,98045.25
2023-01-15T14:12:15.491Z,98042.19
2023-01-15T14:14:04.240Z,98045.91
2023-01-15T14:15:17.556Z,98039.47
2023-01-15T14:17:00.597Z,98048.25
2023-01-15T14:18:21.194Z,98057.88
2023-01-15T14:19:31.764Z,98058.00
2023-01-15T14:20:45.172Z,98043.72
2023-01-15T14:21:55.921Z,98044.69
2023-01-15T14:23:18.223Z,98045.81
2023-01-15T14:24:34.865Z,98051.16
2023-01-15T14:25:51.583Z,98057.34
2023-01-15T14:27:33.606Z,98051.03
2023-01-15T14:28:53.845Z,98056.38
2023-01-15T14:30:30.843Z,98056.09
2023-01-15T14:31:50.558Z,98065.81
2023-01-15T14:32:54.870Z,98060.88
2023-01-15T14:34:30.071Z,98055.66
2023-01-15T14:35:45.511Z,98061.56
2023-01-15T14:37:22.205Z,98071.88
2023-01-15T14:38:27.850Z,98069.16
2023-01-15T14:39:36.759Z,98067.22
2023-01-15T14:40:50.012Z,98052.66
2023-01-15T14:42:08.250Z,98052.66
2023-01-15T14:43:19.187Z,98058.00
2023-01-15T14:44:29.110Z,98054.31
2023-01-15T14:45:40.593Z,98057.75
2023-01-15T14:46:42.203Z,98063.81
2023-01-15T14:47:49.230Z,98068.19
2023-01-15T14:48:50.945Z,98059.53
2023-01-15T14:50:01.331Z,98052.66
2023-01-15T14:51:13.280Z,98062.41
2023-01-15T14:52:24.426Z,98054.81
2023-01-15T14:53:43.822Z,98048.91
2023-01-15T14:54:46.109Z,98044.53
2023-01-15T14:56:01.581Z,98044.38
2023-01-15T14:57:08.152Z,98056.59
2023-01-15T14:58:32.654Z,98041.75
2023-01-15T14:59:48.616Z,98040.78
2023-01-15T15:00:55.675Z,98053.16
2023-01-15T15:02:05.357Z,98055.78
2023-01-15T15:03:34.442Z,98057.69
2023-01-15T15:04:40.686Z,98059.47
2023-01-15T15:05:43.756Z,98051.91
2023-01-15T15:06:55.427Z,98054.13
2023-01-15T15:07:57.580Z,98060.44
2023-01-15T15:09:04.386Z,98058.63
2023-01-15T15:10:14.095Z,98061.94
2023-01-15T15:11:23.709Z,98062.03
2023-01-15T15:12:44.140Z,98054.78
2023-01-15T15:13:47.349Z,98062.44
2023-01-15T15:15:13.527Z,98062.19
2023-01-15T15:16:27.179Z,98062.88
2023-01-15T15:17:53.322Z,98068.78
2023-01-15T15:19:04.979Z,98066.88
2023-01-15T15:20:24.609Z,98072.22
2023-01-15T15:21:30.240Z,98067.84
2023-01-15T15:22:32.704Z,98065.78
2023-01-15T15:23:49.507Z,98064.38
2023-01-15T15:24:54.383Z,98067.41
2023-01-15T15:26:02.336Z,98070.16
2023-01-15T15:27:21.393Z,98067.97
2023-01-15T15:28:23.167Z,98072.22
2023-01-15T15:29:24.807Z,98073.19
2023-01-15T15:30:27.931Z,98090.50
2023-01-15T15:31:36.949Z,98085.56
2023-01-15T15:32:39.001Z,98087.50
2023-01-15T15:33:42.008Z,98092.84
2023-01-15T15:34:46.115Z,98100.53
2023-01-15T15:35:54.107Z,98105.06
2023-01-15T15:37:02.123Z,98103.53
2023-01-15T15:38:05.770Z,98110.28
2023-01-15T15:39:22.223Z,98109.34
2023-01-15T15:40:34.348Z,98116.19
2023-01-15T15:41:37.382Z,98106.72
2023-01-15T15:42:44.576Z,98105.91
2023-01-15T15:43:56.771Z,98115.50
2023-01-15T15:45:00.066Z,98117.44
2023-01-15T15:46:01.689Z,98120.72
2023-01-15T15:47:18.917Z,98121.00
2023-01-15T15:48:29.356Z,98128.44
2023-01-15T15:49:39.756Z,98131.47
2023-01-15T15:50:41.307Z,98137.94
2023-01-15T15:51:54.952Z,98142.56
2023-01-15T15:52:56.622Z,98153.72
2023-01-15T15:54:17.901Z,98165.38
2023-01-15T15:55:21.618Z,98163.84
2023-01-15T15:56:23.419Z,98173.47
2023-01-15T15:57:27.734Z,98177.03
2023-01-15T15:58:37.628Z,98183.59
2023-01-15T15:59:45.809Z,98184.28
2023-01-15T16:00:47.433Z,98191.28
2023-01-15T16:01:49.187Z,98188.09
2023-01-15T16:02:51.963Z,98192.34
2023-01-15T16:03:53.557Z,98186.06
2023-01-15T16:04:58.759Z,98188.56
2023-01-15T16:06:03.506Z,98182.88
2023-01-15T16:07:20.840Z,98192.75
2023-01-15T16:08:22.803Z,98189.44
2023-01-15T16:09:24.922Z,98197.03
2023-01-15T16:10:31.352Z,98188.34
2023-01-15T16:11:33.453Z,98182.31
2023-01-15T16:12:41.723Z,98198.38
2023-01-15T16:13:46.404Z,98196.94
2023-01-15T16:14:48.862Z,98201.84
2023-01-15T16:15:51.545Z,98204.44
2023-01-15T16:16:54.582Z,98215.25
2023-01-15T16:17:57.756Z,98218.34
2023-01-15T16:19:01.445Z,98224.38
2023-01-15T16:20:03.117Z,98224.75
2023-01-15T16:21:05.052Z,98229.25
2023-01-15T16:22:07.973Z,98237.59
2023-01-15T16:23:20.621Z,98239.19
2023-01-15T16:24:28.181Z,98238.00
2023-01-15T16:25:32.770Z,98244.16
2023-01-15T16:26:46.738Z,98254.00
2023-01-15T16:27:48.448Z,98251.53
2023-01-15T16:28:55.196Z,98245.84
2023-01-15T16:29:56.732Z,98256.06
2023-01-15T16:31:00.896Z,98257.47
2023-01-15T16:32:11.116Z,98263.66
2023-01-15T16:33:15.783Z,98267.06
2023-01-15T16:34:24.073Z,98271.22
2023-01-15T16:35:25.811Z,98274.56
2023-01-15T16:36:28.355Z,98274.81
2023-01-15T16:37:30.681Z,98268.63
2023-01-15T16:38:33.553Z,98282.03
2023-01-15T16:39:46.438Z,98281.31
2023-01-15T16:40:48.156Z,98293.06
2023-01-15T16:41:53.240Z,98282.75
2023-01-15T16:43:13.214Z,98286.44
2023-01-15T16:44:29.243Z,98286.53
2023-01-15T16:45:31.296Z,98284.28
2023-01-15T16:46:55.956Z,98293.75
2023-01-15T16:48:07.848Z,98293.31
2023-01-15T16:49:31.639Z,98298.53
2023-01-15T16:50:34.817Z,98299.72
2023-01-15T16:51:36.648Z,98293.06
2023-01-15T16:52:41.330Z,98300.06
2023-01-15T16:53:42.998Z,98306.69
2023-01-15T16:54:45.644Z,98311.66
2023-01-15T16:55:47.261Z,98305.47
2023-01-15T16:56:51.953Z,98309.88
2023-01-15T16:58:13.437Z,98307.16
2023-01-15T16:59:34.886Z,98298.41
2023-01-15T17:00:36.434Z,98304.91
2023-01-15T17:01:46.972Z,98311.06
2023-01-15T17:02:48.595Z,98299.09
2023-01-15T17:03:50.377Z,98306.91
2023-01-15T17:04:52.000Z,98303.47
2023-01-15T17:05:56.777Z,98298.03
2023-01-15T17:07:17.020Z,98307.63
2023-01-15T17:08:32.723Z,98309.63
2023-01-15T17:09:36.545Z,98305.00
2023-01-15T17:10:38.136Z,98306.81
2023-01-15T17:11:39.896Z,98300.50
2023-01-15T17:12:43.411Z,98316.28
2023-01-15T17:13:45.136Z,98311.63
2023-01-15T17:14:46.660Z,98323.22
2023-01-15T17:16:01.530Z,98329.97
2023-01-15T17:17:21.280Z,98332.81
2023-01-15T17:18:27.995Z,98342.50
2023-01-15T17:19:29.538Z,98344.53
2023-01-15T17:20:31.413Z,98336.94
2023-01-15T17:21:33.925Z,98344.03
2023-01-15T17:22:37.052Z,98336.81
2023-01-15T17:23:40.529Z,98335.16
2023-01-15T17:24:49.673Z,98333.28
2023-01-15T17:25:51.440Z,98339.19
2023-01-15T17:26:52.962Z,98342.63
2023-01-15T17:27:55.216Z,98342.41
2023-01-15T17:28:56.877Z,98352.34
2023-01-15T17:29:58.432Z,98340.38
2023-01-15T17:31:02.388Z,98342.97
2023-01-15T17:32:04.681Z,98350.56
2023-01-15T17:33:07.584Z,98340.28
2023-01-15T17:34:10.682Z,98352.34
2023-01-15T17:35:26.020Z,98351.72
2023-01-15T17:36:28.745Z,98350.56
2023-01-15T17:37:30.300Z,98361.69
2023-01-15T17:38:31.857Z,98352.91
2023-01-15T17:39:33.528Z,98357.41
2023-01-15T17:40:35.088Z,98362.53
2023-01-15T17:41:36.621Z,98357.22
2023-01-15T17:42:38.205Z,98359.31
2023-01-15T17:43:39.910Z,98362.47
2023-01-15T17:44:41.554Z,98365.00
2023-01-15T17:45:43.576Z,98369.97
2023-01-15T17:46:45.192Z,98367.34
2023-01-15T17:47:47.142Z,98362.97
2023-01-15T17:48:48.772Z,98375.97
2023-01-15T17:49:50.363Z,98375.03
2023-01-15T17:50:51.995Z,98380.38
2023-01-15T17:51:53.539Z,98387.47
2023-01-15T17:52:55.086Z,98394.34
2023-01-15T17:53:56.701Z,98393.63
2023-01-15T17:54:58.227Z,98403.91
2023-01-15T17:55:59.772Z,98400.81
2023-01-15T17:57:01.309Z,98404.25
2023-01-15T17:58:03.147Z,98412.91
2023-01-15T17:59:04.699Z,98410.19
2023-01-15T18:00:06.727Z,98405.81
2023-01-15T18:01:22.551Z,98402.34
2023-01-15T18:02:24.375Z,98397.50
2023-01-15T18:03:26.257Z,98398.69
2023-01-15T18:04:32.731Z,98397.88
2023-01-15T18:05:34.401Z,98398.44
2023-01-15T18:06:36.467Z,98403.75
2023-01-15T18:07:41.831Z,98406.25
2023-01-15T18:08:47.834Z,98404.00
2023-01-15T18:09:49.867Z,98405.41
2023-01-15T18:10:51.415Z,98398.44
2023-01-15T18:11:53.085Z,98399.16
2023-01-15T18:12:54.689Z,98394.78
2023-01-15T18:13:56.321Z,98396.66
2023-01-15T18:14:57.905Z,98393.13
2023-01-15T18:15:59.490Z,98395.94
2023-01-15T18:17:02.366Z,98403.09
2023-01-15T18:18:04.154Z,98405.56
2023-01-15T18:19:05.878Z,98402.03
2023-01-15T18:20:08.313Z,98402.75
2023-01-15T18:21:10.105Z,98398.47
2023-01-15T18:22:11.661Z,98401.81
2023-01-15T18:23:13.267Z,98402.19
2023-01-15T18:24:14.843Z,98404.09
2023-01-15T18:25:16.414Z,98402.56
2023-01-15T18:26:17.961Z,98407.88
2023-01-15T18:27:19.544Z,98406.59
2023-01-15T18:28:21.423Z,98408.97
2023-01-15T18:29:23.064Z,98408.25
2023-01-15T18:30:24.689Z,98404.81
2023-01-15T18:31:26.310Z,98402.22
2023-01-15T18:32:29.000Z,98392.16
2023-01-15T18:33:30.990Z,98399.63
2023-01-15T18:34:32.561Z,98402.22
2023-01-15T18:35:35.445Z,98396.28
2023-01-15T18:36:37.075Z,98398.78
2023-01-15T18:37:38.612Z,98395.34
2023-01-15T18:38:42.588Z,98388.13
2023-01-15T18:39:44.246Z,98384.00
2023-01-15T18:40:45.875Z,98383.03
2023-01-15T18:41:47.576Z,98384.09
2023-01-15T18:42:49.260Z,98388.47
2023-01-15T18:43:50.818Z,98392.25
2023-01-15T18:44:52.406Z,98386.22
2023-01-15T18:45:53.943Z,98396.75
2023-01-15T18:47:06.958Z,98397.13